Smyrna, GA (30082)

1:08 PM EST on November 24, 2014 (GMT -0500)
Tain Weather, Creatwood Subdivision | Change Station
CLOSE
Current Station
Personal Weather Station
Location: Smyrna, GA
Elevation: 1000 ft
Nearby Weather Stations

Elev 1000 ft 33.87 °N, 84.50 °W | Updated 22 seconds ago

Clear
Clear
72.3 °F
Feels Like 77 °F
N
6.7
Wind Variable Wind from West
Gusts 8.7 mph

Today
High -- | Low -- °F
--% Chance of Precip.
Yesterday
High -- | Low -- °F
Precip. -- in
7:18 AM 5:30 PM
Waxing Crescent, 6% visible
Pressure 29.79 in
Visibility 10.0 miles
Clouds Few 3000 ft
Few 25000 ft
Heat Index 77 °F
Dew Point 53 °F
Humidity 50%
Rainfall 0.00 in
Snow Depth Not available.
UV 4 out of 12
Pollen 1.30 out of 12
Air Quality Not available.
Flu Activity Not available.
METAR KMGE 241758Z 24008KT 200V270 10SM FEW030 FEW250 23/13 A2980 RMK AO2A SLP086 T02250125 10226 20147 58001 $

More Conditions Fewer Conditions

Pressure 29.79 in
Visibility 10.0 miles
Clouds Few 3000 ft
Few 25000 ft
Heat Index 77 °F
Dew Point 53 °F
Humidity 50%
Rainfall 0.00 in
Snow Depth Not available.
UV 4 out of 12
Pollen 1.30 out of 12
Air Quality Not available.
Flu Activity Not available.
METAR KMGE 241758Z 24008KT 200V270 10SM FEW030 FEW250 23/13 A2980 RMK AO2A SLP086 T02250125 10226 20147 58001 $

More Conditions Fewer Conditions

10-Day Weather Forecast

Almanac

Astronomy

Nov. 24, 2014 Rise Set
Actual Time
Civil Twilight
Nautical Twilight
Astronomical Twilight
Moon
Length of Visible Light
Length of Day
Tomorrow will be .
, % of the Moon is Illuminated

Today's Extremes

State Highs State Lows

Community

WunderPhotos

Upload Photos

1,773,381 photos uploaded!

WunderBlogs® & News

Nearby

Air Quality

  Air Quality AQ Index Pollutant
Not available.

Snow Depth

Station Depth Elevation

Earthquake Activity

City Distance Mag. Time & Date
Minimum magnitude displayed is 2.5.

Coastal Water Temperatures

Place Temperature

Nearby Weather Stations